Atlantis Alhambra — 9HA2101 — position and weather

sailwx.info

Track history (hours):
 
Tides and Currents Weather Stations Pressure Air Temp Water Temp Dewpoint Dewpoint Depression Visibility Wind Speed Wind Dir Waves Ship Positions

Atlantis Alhambra

Last reported at 2017-Oct-15 23:21 UTC. Time now 2017-Oct-17 10:04 UTC.
Position N 37°28' W 000°39'.

Length 109 m; draft 6.8 m.

Type: Ship. MMSI: 249960000.

Date/timePositionNaut miles runAvg speedWind from/ knotsBaromVisibWave heightAir tempDewpointWater temp
2017-Oct-15 23:21N 37°28' W 000°39'410.8
2017-Oct-15 23:00N 37°29' W 000°44'510.2
2017-Oct-15 22:30N 37°30' W 000°50'8 0.2
2017-Oct-13 19:55N 37°24' W 000°56'4 9.8
2017-Oct-13 19:30N 37°23' W 001°00'510.0
2017-Oct-13 19:00N 37°21' W 001°06'7 9.8
2017-Oct-13 18:17N 37°18' W 001°15'9 9.3
2017-Oct-13 17:17N 37°11' W 001°22'3 9.1
2017-Oct-13 17:00N 37°09' W 001°24'4 9.0
2017-Oct-13 16:30N 37°06' W 001°28'192 8.7
2017-Oct-12 18:29N 35°58' W 005°12'510.9
2017-Oct-12 18:00N 35°56' W 005°18'2 4.8
2017-Oct-12 17:30N 35°54' W 005°19'0 0.0
2017-Oct-12 16:59N 35°54' W 005°19'0 0.0
2017-Oct-12 16:29N 35°54' W 005°19'0 0.0
2017-Oct-12 15:59N 35°54' W 005°19'0 0.0
2017-Oct-12 15:29N 35°54' W 005°19'0 0.0
2017-Oct-12 14:59N 35°54' W 005°19'0 0.0
2017-Oct-12 14:29N 35°54' W 005°19'0 0.0
2017-Oct-12 13:59N 35°54' W 005°19'0 0.0
2017-Oct-12 13:30N 35°54' W 005°19'0 0.1
2017-Oct-12 13:00N 35°54' W 005°19'1 2.5
2017-Oct-12 12:30N 35°55' W 005°19'3 6.2
2017-Oct-12 12:00N 35°57' W 005°22'612.3
2017-Oct-12 11:31N 35°57' W 005°29'712.4
2017-Oct-12 10:57N 35°55' W 005°38'512.2
2017-Oct-12 10:30N 35°55' W 005°44'911.6
2017-Oct-12 09:43N 35°54' W 005°55'9911.0
2017-Oct-12 00:45N 36°13' W 007°56'311.5
2017-Oct-12 00:27N 36°14' W 007°60'1511.0
2017-Oct-11 23:05N 36°17' W 008°18'111.6
2017-Oct-11 23:00N 36°17' W 008°19'510.8
2017-Oct-11 22:30N 36°19' W 008°26'1511.5
2017-Oct-11 21:14N 36°22' W 008°43'311.6
2017-Oct-11 20:59N 36°23' W 008°47'611.4
2017-Oct-11 20:27N 36°24' W 008°54'511.5
2017-Oct-11 19:59N 36°26' W 009°00'611.6
2017-Oct-11 19:29N 36°27' W 009°07'611.3
2017-Oct-11 19:00N 36°29' W 009°14'810.4
2017-Oct-11 18:11N 36°32' W 009°24'410.5
2017-Oct-11 17:50N 36°35' W 009°27'410.8
2017-Oct-11 17:29N 36°38' W 009°30'610.7
2017-Oct-11 16:56N 36°42' W 009°35'113 6.7
2017-Oct-11 00:00N 38°30' W 008°50'0 0.0
2017-Oct-10 23:30N 38°30' W 008°50'0 0.0
2017-Oct-10 23:00N 38°30' W 008°50'0 0.0
2017-Oct-10 22:30N 38°30' W 008°50'0 0.0
2017-Oct-10 21:57N 38°30' W 008°50'0 0.0
2017-Oct-10 21:24N 38°30' W 008°50'0 0.0
2017-Oct-10 20:57N 38°30' W 008°50'0 0.0
2017-Oct-10 20:30N 38°30' W 008°50'0 0.0
2017-Oct-10 19:54N 38°30' W 008°50'0 0.0
2017-Oct-10 19:30N 38°30' W 008°50'0 0.0
2017-Oct-10 19:00N 38°30' W 008°50'0 0.0
2017-Oct-10 18:27N 38°30' W 008°50'0 0.0
2017-Oct-10 18:00N 38°30' W 008°50'0 0.0
2017-Oct-10 17:27N 38°30' W 008°50'0 0.0
2017-Oct-10 16:54N 38°30' W 008°50'0 0.0
2017-Oct-10 16:30N 38°30' W 008°50'0 0.0
2017-Oct-10 15:57N 38°30' W 008°50'0 0.0
2017-Oct-10 15:27N 38°30' W 008°50'0 0.0
2017-Oct-10 15:00N 38°30' W 008°50'2 1.8
2017-Oct-10 14:00N 38°31' W 008°52'5 9.7
2017-Oct-10 13:30N 38°28' W 008°57'4 8.7
2017-Oct-10 13:00N 38°24' W 008°60'2 3.0
2017-Oct-10 12:30N 38°22' W 009°00'4 7.5
2017-Oct-10 12:00N 38°19' W 009°01'611.3
2017-Oct-10 11:30N 38°13' W 009°03'611.4
2017-Oct-10 11:00N 38°08' W 009°05'611.6
2017-Oct-10 10:30N 38°02' W 009°07'611.9
2017-Oct-10 10:00N 37°56' W 009°09'612.1
2017-Oct-10 09:30N 37°51' W 009°11'611.7
2017-Oct-10 09:00N 37°45' W 009°12'611.8
2017-Oct-10 08:30N 37°39' W 009°14'611.8
2017-Oct-10 08:00N 37°33' W 009°16'612.1
2017-Oct-10 07:30N 37°28' W 009°18'612.0
2017-Oct-10 07:00N 37°22' W 009°19'611.7
2017-Oct-10 06:30N 37°16' W 009°21'611.6
2017-Oct-10 06:00N 37°10' W 009°23'611.4
2017-Oct-10 05:30N 37°05' W 009°25'611.0
2017-Oct-10 05:00N 36°59' W 009°26'611.2
2017-Oct-10 04:30N 36°54' W 009°25'510.7
2017-Oct-10 04:00N 36°49' W 009°22'611.0
2017-Oct-10 03:30N 36°45' W 009°17'611.5
2017-Oct-10 03:00N 36°41' W 009°12'611.1
2017-Oct-10 02:30N 36°39' W 009°06'611.2
2017-Oct-10 02:00N 36°38' W 008°59'711.3
2017-Oct-10 01:23N 36°36' W 008°50'411.4
2017-Oct-10 01:00N 36°35' W 008°45'611.1
2017-Oct-10 00:27N 36°34' W 008°38'512.0
2017-Oct-10 00:00N 36°33' W 008°31'612.1
2017-Oct-09 23:30N 36°31' W 008°24'612.1
2017-Oct-09 23:00N 36°30' W 008°17'712.1
2017-Oct-09 22:27N 36°29' W 008°08'611.9
2017-Oct-09 21:58N 36°28' W 008°01'511.4
2017-Oct-09 21:30N 36°26' W 007°55'611.8
2017-Oct-09 20:58N 36°24' W 007°48'611.9
2017-Oct-09 20:30N 36°22' W 007°41'611.7
2017-Oct-09 20:00N 36°21' W 007°34'611.6
2017-Oct-09 19:30N 36°19' W 007°28'611.6
2017-Oct-09 19:00N 36°17' W 007°21'611.8
2017-Oct-09 18:30N 36°15' W 007°14'612.0
2017-Oct-09 18:00N 36°13' W 007°07'611.7
2017-Oct-09 17:30N 36°11' W 006°60'611.9
2017-Oct-09 17:00N 36°09' W 006°53'711.8
2017-Oct-09 16:24N 36°06' W 006°45'511.6
2017-Oct-09 16:00N 36°05' W 006°40'611.5
2017-Oct-09 15:27N 36°03' W 006°32'28810.9
2017-Oct-08 13:04N 37°24' W 000°47'1311.5
2017-Oct-08 11:57N 37°33' W 000°36'611.4
2017-Oct-08 11:28N 37°37' W 000°31'  
Track history (hours):
 
Tides and Currents Weather Stations Pressure Air Temp Water Temp Dewpoint Dewpoint Depression Visibility Wind Speed Wind Dir Waves Ship Positions

Atlantis Alhambra

Last reported at 2017-Oct-15 23:21 UTC. Time now 2017-Oct-17 10:04 UTC.
Position N 37°28' W 000°39'.

Length 109 m; draft 6.8 m.

Type: Ship. MMSI: 249960000.

Date/timePositionNaut miles runAvg speedWind from/ knotsBaromVisibWave heightAir tempDewpointWater temp
2017-Oct-15 23:21N 37°28' W 000°39'410.8
2017-Oct-15 23:00N 37°29' W 000°44'510.2
2017-Oct-15 22:30N 37°30' W 000°50'8 0.2
2017-Oct-13 19:55N 37°24' W 000°56'4 9.8
2017-Oct-13 19:30N 37°23' W 001°00'510.0
2017-Oct-13 19:00N 37°21' W 001°06'7 9.8
2017-Oct-13 18:17N 37°18' W 001°15'9 9.3
2017-Oct-13 17:17N 37°11' W 001°22'3 9.1
2017-Oct-13 17:00N 37°09' W 001°24'4 9.0
2017-Oct-13 16:30N 37°06' W 001°28'192 8.7
2017-Oct-12 18:29N 35°58' W 005°12'510.9
2017-Oct-12 18:00N 35°56' W 005°18'2 4.8
2017-Oct-12 17:30N 35°54' W 005°19'0 0.0
2017-Oct-12 16:59N 35°54' W 005°19'0 0.0
2017-Oct-12 16:29N 35°54' W 005°19'0 0.0
2017-Oct-12 15:59N 35°54' W 005°19'0 0.0
2017-Oct-12 15:29N 35°54' W 005°19'0 0.0
2017-Oct-12 14:59N 35°54' W 005°19'0 0.0
2017-Oct-12 14:29N 35°54' W 005°19'0 0.0
2017-Oct-12 13:59N 35°54' W 005°19'0 0.0
2017-Oct-12 13:30N 35°54' W 005°19'0 0.1
2017-Oct-12 13:00N 35°54' W 005°19'1 2.5
2017-Oct-12 12:30N 35°55' W 005°19'3 6.2
2017-Oct-12 12:00N 35°57' W 005°22'612.3
2017-Oct-12 11:31N 35°57' W 005°29'712.4
2017-Oct-12 10:57N 35°55' W 005°38'512.2
2017-Oct-12 10:30N 35°55' W 005°44'911.6
2017-Oct-12 09:43N 35°54' W 005°55'9911.0
2017-Oct-12 00:45N 36°13' W 007°56'311.5
2017-Oct-12 00:27N 36°14' W 007°60'1511.0
2017-Oct-11 23:05N 36°17' W 008°18'111.6
2017-Oct-11 23:00N 36°17' W 008°19'510.8
2017-Oct-11 22:30N 36°19' W 008°26'1511.5
2017-Oct-11 21:14N 36°22' W 008°43'311.6
2017-Oct-11 20:59N 36°23' W 008°47'611.4
2017-Oct-11 20:27N 36°24' W 008°54'511.5
2017-Oct-11 19:59N 36°26' W 009°00'611.6
2017-Oct-11 19:29N 36°27' W 009°07'611.3
2017-Oct-11 19:00N 36°29' W 009°14'810.4
2017-Oct-11 18:11N 36°32' W 009°24'410.5
2017-Oct-11 17:50N 36°35' W 009°27'410.8
2017-Oct-11 17:29N 36°38' W 009°30'610.7
2017-Oct-11 16:56N 36°42' W 009°35'113 6.7
2017-Oct-11 00:00N 38°30' W 008°50'0 0.0
2017-Oct-10 23:30N 38°30' W 008°50'0 0.0
2017-Oct-10 23:00N 38°30' W 008°50'0 0.0
2017-Oct-10 22:30N 38°30' W 008°50'0 0.0
2017-Oct-10 21:57N 38°30' W 008°50'0 0.0
2017-Oct-10 21:24N 38°30' W 008°50'0 0.0
2017-Oct-10 20:57N 38°30' W 008°50'0 0.0
2017-Oct-10 20:30N 38°30' W 008°50'0 0.0
2017-Oct-10 19:54N 38°30' W 008°50'0 0.0
2017-Oct-10 19:30N 38°30' W 008°50'0 0.0
2017-Oct-10 19:00N 38°30' W 008°50'0 0.0
2017-Oct-10 18:27N 38°30' W 008°50'0 0.0
2017-Oct-10 18:00N 38°30' W 008°50'0 0.0
2017-Oct-10 17:27N 38°30' W 008°50'0 0.0
2017-Oct-10 16:54N 38°30' W 008°50'0 0.0
2017-Oct-10 16:30N 38°30' W 008°50'0 0.0
2017-Oct-10 15:57N 38°30' W 008°50'0 0.0
2017-Oct-10 15:27N 38°30' W 008°50'0 0.0
2017-Oct-10 15:00N 38°30' W 008°50'2 1.8
2017-Oct-10 14:00N 38°31' W 008°52'5 9.7
2017-Oct-10 13:30N 38°28' W 008°57'4 8.7
2017-Oct-10 13:00N 38°24' W 008°60'2 3.0
2017-Oct-10 12:30N 38°22' W 009°00'4 7.5
2017-Oct-10 12:00N 38°19' W 009°01'611.3
2017-Oct-10 11:30N 38°13' W 009°03'611.4
2017-Oct-10 11:00N 38°08' W 009°05'611.6
2017-Oct-10 10:30N 38°02' W 009°07'611.9
2017-Oct-10 10:00N 37°56' W 009°09'612.1
2017-Oct-10 09:30N 37°51' W 009°11'611.7
2017-Oct-10 09:00N 37°45' W 009°12'611.8
2017-Oct-10 08:30N 37°39' W 009°14'611.8
2017-Oct-10 08:00N 37°33' W 009°16'612.1
2017-Oct-10 07:30N 37°28' W 009°18'612.0
2017-Oct-10 07:00N 37°22' W 009°19'611.7
2017-Oct-10 06:30N 37°16' W 009°21'611.6
2017-Oct-10 06:00N 37°10' W 009°23'611.4
2017-Oct-10 05:30N 37°05' W 009°25'611.0
2017-Oct-10 05:00N 36°59' W 009°26'611.2
2017-Oct-10 04:30N 36°54' W 009°25'510.7
2017-Oct-10 04:00N 36°49' W 009°22'611.0
2017-Oct-10 03:30N 36°45' W 009°17'611.5
2017-Oct-10 03:00N 36°41' W 009°12'611.1
2017-Oct-10 02:30N 36°39' W 009°06'611.2
2017-Oct-10 02:00N 36°38' W 008°59'711.3
2017-Oct-10 01:23N 36°36' W 008°50'411.4
2017-Oct-10 01:00N 36°35' W 008°45'611.1
2017-Oct-10 00:27N 36°34' W 008°38'512.0
2017-Oct-10 00:00N 36°33' W 008°31'612.1
2017-Oct-09 23:30N 36°31' W 008°24'612.1
2017-Oct-09 23:00N 36°30' W 008°17'712.1
2017-Oct-09 22:27N 36°29' W 008°08'611.9
2017-Oct-09 21:58N 36°28' W 008°01'511.4
2017-Oct-09 21:30N 36°26' W 007°55'611.8
2017-Oct-09 20:58N 36°24' W 007°48'611.9
2017-Oct-09 20:30N 36°22' W 007°41'611.7
2017-Oct-09 20:00N 36°21' W 007°34'611.6
2017-Oct-09 19:30N 36°19' W 007°28'611.6
2017-Oct-09 19:00N 36°17' W 007°21'611.8
2017-Oct-09 18:30N 36°15' W 007°14'612.0
2017-Oct-09 18:00N 36°13' W 007°07'611.7
2017-Oct-09 17:30N 36°11' W 006°60'611.9
2017-Oct-09 17:00N 36°09' W 006°53'711.8
2017-Oct-09 16:24N 36°06' W 006°45'511.6
2017-Oct-09 16:00N 36°05' W 006°40'611.5
2017-Oct-09 15:27N 36°03' W 006°32'28810.9
2017-Oct-08 13:04N 37°24' W 000°47'1311.5
2017-Oct-08 11:57N 37°33' W 000°36'611.4
2017-Oct-08 11:28N 37°37' W 000°31'  

Dump ship's entire track history